Nissequogue, New York
Current Conditions -  °F | °C
As of 11:56 PM on Friday 19 Dec 2014 (Local Time) from KISP Reporting Station
Few Clouds Few Clouds  
Wind Chill: 23°   Ceiling: Unl
Heat Index: 30°   Visibility: 10mi
Dew Point: 20°   Wind: 7mph
Humidity: 66%   Direction: 340°NNW
Pressure: 30.16"   Gusts: NA
Location:  40.8903°N, 73.169°W
Report Text: KISP 200456Z 34006KT 10SM FEW030 M01/M07 A3016 RMK AO2 SLP215 LAST AUGMENTED OBSERVATION UNTIL 1100Z T10111067 400441017
Loading
Personal Weather Stations






























Interactive Weather Map New forecast layout! Learn more

10-Day Weather Forecast

Advertisements
Track Severe Weather on mobile